sensor_id;sensor_type;location;lat;lon;timestamp;temperature;humidity
64501;DHT22;50874;24.150;-110.320;2023-03-16T00:01:21;33.90;40.60
64501;DHT22;50874;24.150;-110.320;2023-03-16T00:03:47;33.60;40.90
64501;DHT22;50874;24.150;-110.320;2023-03-16T00:06:13;33.60;40.60
64501;DHT22;50874;24.150;-110.320;2023-03-16T00:08:40;33.70;40.60
64501;DHT22;50874;24.150;-110.320;2023-03-16T00:11:08;33.70;40.70
64501;DHT22;50874;24.150;-110.320;2023-03-16T00:13:34;33.60;41.00
64501;DHT22;50874;24.150;-110.320;2023-03-16T00:16:02;33.60;41.10
64501;DHT22;50874;24.150;-110.320;2023-03-16T00:18:32;33.60;41.30
64501;DHT22;50874;24.150;-110.320;2023-03-16T00:21:06;33.60;44.60
64501;DHT22;50874;24.150;-110.320;2023-03-16T00:23:33;33.20;55.60
64501;DHT22;50874;24.150;-110.320;2023-03-16T00:26:05;33.20;54.50
64501;DHT22;50874;24.150;-110.320;2023-03-16T00:28:34;32.90;55.60
64501;DHT22;50874;24.150;-110.320;2023-03-16T00:31:02;32.90;57.30
64501;DHT22;50874;24.150;-110.320;2023-03-16T00:33:29;32.70;58.40
64501;DHT22;50874;24.150;-110.320;2023-03-16T00:36:01;32.40;57.80
64501;DHT22;50874;24.150;-110.320;2023-03-16T00:38:30;32.10;59.20
64501;DHT22;50874;24.150;-110.320;2023-03-16T00:40:56;31.90;60.30
64501;DHT22;50874;24.150;-110.320;2023-03-16T00:43:23;31.60;60.60
64501;DHT22;50874;24.150;-110.320;2023-03-16T00:46:00;31.10;62.20
64501;DHT22;50874;24.150;-110.320;2023-03-16T00:48:35;31.00;63.40
64501;DHT22;50874;24.150;-110.320;2023-03-16T00:51:03;30.90;64.50
64501;DHT22;50874;24.150;-110.320;2023-03-16T00:53:35;30.70;64.70
64501;DHT22;50874;24.150;-110.320;2023-03-16T00:56:02;30.60;64.70
64501;DHT22;50874;24.150;-110.320;2023-03-16T00:58:33;30.40;64.70
64501;DHT22;50874;24.150;-110.320;2023-03-16T01:01:06;30.30;65.30
64501;DHT22;50874;24.150;-110.320;2023-03-16T01:03:34;30.00;66.00
64501;DHT22;50874;24.150;-110.320;2023-03-16T01:06:05;29.90;66.70
64501;DHT22;50874;24.150;-110.320;2023-03-16T01:08:32;29.70;67.40
64501;DHT22;50874;24.150;-110.320;2023-03-16T01:11:03;29.50;68.00
64501;DHT22;50874;24.150;-110.320;2023-03-16T01:13:30;29.10;68.70
64501;DHT22;50874;24.150;-110.320;2023-03-16T01:15:59;28.90;68.80
64501;DHT22;50874;24.150;-110.320;2023-03-16T01:18:26;28.70;69.00
64501;DHT22;50874;24.150;-110.320;2023-03-16T01:20:53;28.50;69.50
64501;DHT22;50874;24.150;-110.320;2023-03-16T01:23:20;28.40;69.30
64501;DHT22;50874;24.150;-110.320;2023-03-16T01:25:47;28.40;69.10
64501;DHT22;50874;24.150;-110.320;2023-03-16T01:28:19;28.20;69.50
64501;DHT22;50874;24.150;-110.320;2023-03-16T01:30:46;28.20;69.70
64501;DHT22;50874;24.150;-110.320;2023-03-16T01:33:13;28.30;69.30
64501;DHT22;50874;24.150;-110.320;2023-03-16T01:35:40;28.30;69.10
64501;DHT22;50874;24.150;-110.320;2023-03-16T01:38:06;28.30;69.20
64501;DHT22;50874;24.150;-110.320;2023-03-16T01:40:33;28.40;69.00
64501;DHT22;50874;24.150;-110.320;2023-03-16T01:43:02;28.40;68.90
64501;DHT22;50874;24.150;-110.320;2023-03-16T01:46:05;28.30;69.10
64501;DHT22;50874;24.150;-110.320;2023-03-16T01:54:19;28.00;70.10
64501;DHT22;50874;24.150;-110.320;2023-03-16T01:57:06;27.90;70.60
64501;DHT22;50874;24.150;-110.320;2023-03-16T01:59:47;27.80;71.30
64501;DHT22;50874;24.150;-110.320;2023-03-16T02:02:15;27.70;72.00
64501;DHT22;50874;24.150;-110.320;2023-03-16T02:04:52;27.50;72.00
64501;DHT22;50874;24.150;-110.320;2023-03-16T02:07:25;27.60;71.80
64501;DHT22;50874;24.150;-110.320;2023-03-16T02:09:56;27.60;71.50
64501;DHT22;50874;24.150;-110.320;2023-03-16T02:12:23;27.60;71.50
64501;DHT22;50874;24.150;-110.320;2023-03-16T02:14:51;27.70;71.60
64501;DHT22;50874;24.150;-110.320;2023-03-16T02:17:25;27.70;71.50
64501;DHT22;50874;24.150;-110.320;2023-03-16T02:22:46;27.60;71.60
64501;DHT22;50874;24.150;-110.320;2023-03-16T02:25:15;27.50;72.20
64501;DHT22;50874;24.150;-110.320;2023-03-16T02:30:32;27.40;73.20
64501;DHT22;50874;24.150;-110.320;2023-03-16T02:32:58;27.30;72.90
64501;DHT22;50874;24.150;-110.320;2023-03-16T02:35:25;27.20;73.10
64501;DHT22;50874;24.150;-110.320;2023-03-16T02:37:52;26.90;73.40
64501;DHT22;50874;24.150;-110.320;2023-03-16T02:40:22;26.80;74.10
64501;DHT22;50874;24.150;-110.320;2023-03-16T02:43:04;26.70;73.60
64501;DHT22;50874;24.150;-110.320;2023-03-16T02:48:13;26.50;73.00
64501;DHT22;50874;24.150;-110.320;2023-03-16T02:50:44;26.50;72.90
64501;DHT22;50874;24.150;-110.320;2023-03-16T02:53:14;26.50;72.60
64501;DHT22;50874;24.150;-110.320;2023-03-16T02:55:41;26.40;72.10
64501;DHT22;50874;24.150;-110.320;2023-03-16T02:58:08;26.40;71.20
64501;DHT22;50874;24.150;-110.320;2023-03-16T03:00:34;26.40;70.80
64501;DHT22;50874;24.150;-110.320;2023-03-16T03:03:01;26.40;70.60
64501;DHT22;50874;24.150;-110.320;2023-03-16T03:05:28;26.40;70.10
64501;DHT22;50874;24.150;-110.320;2023-03-16T03:07:54;26.40;70.00
64501;DHT22;50874;24.150;-110.320;2023-03-16T03:10:21;26.30;70.90
64501;DHT22;50874;24.150;-110.320;2023-03-16T03:12:47;26.20;75.50
64501;DHT22;50874;24.150;-110.320;2023-03-16T03:15:15;26.10;76.90
64501;DHT22;50874;24.150;-110.320;2023-03-16T03:17:42;26.10;78.10
64501;DHT22;50874;24.150;-110.320;2023-03-16T03:20:11;26.00;78.30
64501;DHT22;50874;24.150;-110.320;2023-03-16T03:22:48;26.10;78.80
64501;DHT22;50874;24.150;-110.320;2023-03-16T03:25:16;26.00;79.20
64501;DHT22;50874;24.150;-110.320;2023-03-16T03:27:44;26.00;80.00
64501;DHT22;50874;24.150;-110.320;2023-03-16T03:30:13;25.90;80.70
64501;DHT22;50874;24.150;-110.320;2023-03-16T03:32:40;25.80;81.60
64501;DHT22;50874;24.150;-110.320;2023-03-16T03:35:07;25.70;82.40
64501;DHT22;50874;24.150;-110.320;2023-03-16T03:37:38;25.60;82.90
64501;DHT22;50874;24.150;-110.320;2023-03-16T03:40:05;25.60;83.40
64501;DHT22;50874;24.150;-110.320;2023-03-16T03:42:32;25.50;83.80
64501;DHT22;50874;24.150;-110.320;2023-03-16T03:44:59;25.60;83.80
64501;DHT22;50874;24.150;-110.320;2023-03-16T03:47:25;25.60;84.00
64501;DHT22;50874;24.150;-110.320;2023-03-16T03:49:52;25.60;83.80
64501;DHT22;50874;24.150;-110.320;2023-03-16T03:52:18;25.60;83.80
64501;DHT22;50874;24.150;-110.320;2023-03-16T03:54:45;25.60;84.00
64501;DHT22;50874;24.150;-110.320;2023-03-16T03:57:11;25.60;84.20
64501;DHT22;50874;24.150;-110.320;2023-03-16T03:59:37;25.60;84.60
64501;DHT22;50874;24.150;-110.320;2023-03-16T04:02:12;25.60;85.00
64501;DHT22;50874;24.150;-110.320;2023-03-16T04:04:40;25.50;85.70
64501;DHT22;50874;24.150;-110.320;2023-03-16T04:07:07;25.50;86.40
64501;DHT22;50874;24.150;-110.320;2023-03-16T04:09:33;25.40;86.60
64501;DHT22;50874;24.150;-110.320;2023-03-16T04:12:01;25.40;87.20
64501;DHT22;50874;24.150;-110.320;2023-03-16T04:14:28;25.20;87.80
64501;DHT22;50874;24.150;-110.320;2023-03-16T04:16:55;25.10;88.60
64501;DHT22;50874;24.150;-110.320;2023-03-16T04:19:22;25.00;89.60
64501;DHT22;50874;24.150;-110.320;2023-03-16T04:21:49;24.90;90.50
64501;DHT22;50874;24.150;-110.320;2023-03-16T04:24:17;24.80;90.60
64501;DHT22;50874;24.150;-110.320;2023-03-16T04:26:44;24.70;91.00
64501;DHT22;50874;24.150;-110.320;2023-03-16T04:29:15;24.60;91.50
64501;DHT22;50874;24.150;-110.320;2023-03-16T04:31:44;24.50;92.30
64501;DHT22;50874;24.150;-110.320;2023-03-16T04:34:11;24.30;92.90
64501;DHT22;50874;24.150;-110.320;2023-03-16T04:36:38;24.20;94.30
64501;DHT22;50874;24.150;-110.320;2023-03-16T04:39:06;24.10;95.50
64501;DHT22;50874;24.150;-110.320;2023-03-16T04:41:33;23.90;96.90
64501;DHT22;50874;24.150;-110.320;2023-03-16T04:44:00;23.60;98.90
64501;DHT22;50874;24.150;-110.320;2023-03-16T04:46:27;23.50;99.90
64501;DHT22;50874;24.150;-110.320;2023-03-16T04:48:54;23.40;99.90
64501;DHT22;50874;24.150;-110.320;2023-03-16T04:51:23;23.40;99.90
64501;DHT22;50874;24.150;-110.320;2023-03-16T04:53:50;23.30;99.90
64501;DHT22;50874;24.150;-110.320;2023-03-16T04:56:16;23.20;99.90
64501;DHT22;50874;24.150;-110.320;2023-03-16T04:58:47;23.10;99.90
64501;DHT22;50874;24.150;-110.320;2023-03-16T05:01:15;22.90;99.90
64501;DHT22;50874;24.150;-110.320;2023-03-16T05:03:42;22.80;99.90
64501;DHT22;50874;24.150;-110.320;2023-03-16T05:06:10;22.70;99.90
64501;DHT22;50874;24.150;-110.320;2023-03-16T05:08:37;22.60;99.90
64501;DHT22;50874;24.150;-110.320;2023-03-16T05:11:04;22.60;99.90
64501;DHT22;50874;24.150;-110.320;2023-03-16T05:13:30;22.50;99.90
64501;DHT22;50874;24.150;-110.320;2023-03-16T05:15:56;22.50;99.90
64501;DHT22;50874;24.150;-110.320;2023-03-16T05:18:23;22.40;99.90
64501;DHT22;50874;24.150;-110.320;2023-03-16T05:20:51;22.30;99.90
64501;DHT22;50874;24.150;-110.320;2023-03-16T05:23:19;22.30;99.90
64501;DHT22;50874;24.150;-110.320;2023-03-16T05:25:46;22.20;99.90
64501;DHT22;50874;24.150;-110.320;2023-03-16T05:28:13;22.20;99.90
64501;DHT22;50874;24.150;-110.320;2023-03-16T05:30:40;22.10;99.90
64501;DHT22;50874;24.150;-110.320;2023-03-16T05:33:08;22.10;99.90
64501;DHT22;50874;24.150;-110.320;2023-03-16T05:35:35;22.10;99.90
64501;DHT22;50874;24.150;-110.320;2023-03-16T05:38:03;22.10;99.90
64501;DHT22;50874;24.150;-110.320;2023-03-16T05:40:29;22.00;99.90
64501;DHT22;50874;24.150;-110.320;2023-03-16T05:42:57;21.90;99.90
64501;DHT22;50874;24.150;-110.320;2023-03-16T05:45:25;21.90;99.90
64501;DHT22;50874;24.150;-110.320;2023-03-16T05:47:52;21.80;99.90
64501;DHT22;50874;24.150;-110.320;2023-03-16T05:50:19;21.80;99.90
64501;DHT22;50874;24.150;-110.320;2023-03-16T05:52:46;21.70;99.90
64501;DHT22;50874;24.150;-110.320;2023-03-16T05:55:15;21.70;99.90
64501;DHT22;50874;24.150;-110.320;2023-03-16T05:57:42;21.70;99.90
64501;DHT22;50874;24.150;-110.320;2023-03-16T06:00:11;21.60;99.90
64501;DHT22;50874;24.150;-110.320;2023-03-16T06:02:45;21.60;99.90
64501;DHT22;50874;24.150;-110.320;2023-03-16T06:05:12;21.50;99.90
64501;DHT22;50874;24.150;-110.320;2023-03-16T06:07:39;21.40;99.90
64501;DHT22;50874;24.150;-110.320;2023-03-16T06:10:07;21.30;99.90
64501;DHT22;50874;24.150;-110.320;2023-03-16T06:12:33;21.20;99.90
64501;DHT22;50874;24.150;-110.320;2023-03-16T06:15:00;21.10;99.90
64501;DHT22;50874;24.150;-110.320;2023-03-16T06:17:27;21.10;99.90
64501;DHT22;50874;24.150;-110.320;2023-03-16T06:19:54;21.10;99.90
64501;DHT22;50874;24.150;-110.320;2023-03-16T06:22:20;21.10;99.90
64501;DHT22;50874;24.150;-110.320;2023-03-16T06:24:47;21.00;99.90
64501;DHT22;50874;24.150;-110.320;2023-03-16T06:27:13;21.00;99.90
64501;DHT22;50874;24.150;-110.320;2023-03-16T06:29:40;21.00;99.90
64501;DHT22;50874;24.150;-110.320;2023-03-16T06:32:06;21.00;99.90
64501;DHT22;50874;24.150;-110.320;2023-03-16T06:34:33;21.00;99.90
64501;DHT22;50874;24.150;-110.320;2023-03-16T06:36:59;21.00;99.90
64501;DHT22;50874;24.150;-110.320;2023-03-16T06:39:26;20.90;99.90
64501;DHT22;50874;24.150;-110.320;2023-03-16T06:41:52;20.90;99.90
64501;DHT22;50874;24.150;-110.320;2023-03-16T06:44:18;20.80;99.90
64501;DHT22;50874;24.150;-110.320;2023-03-16T06:46:46;20.80;99.90
64501;DHT22;50874;24.150;-110.320;2023-03-16T06:49:12;20.70;99.90
64501;DHT22;50874;24.150;-110.320;2023-03-16T06:51:38;20.70;99.90
64501;DHT22;50874;24.150;-110.320;2023-03-16T06:54:05;20.60;99.90
64501;DHT22;50874;24.150;-110.320;2023-03-16T06:56:32;20.60;99.90
64501;DHT22;50874;24.150;-110.320;2023-03-16T06:58:58;20.60;99.90
64501;DHT22;50874;24.150;-110.320;2023-03-16T07:01:25;20.60;99.90
64501;DHT22;50874;24.150;-110.320;2023-03-16T07:03:51;20.50;99.90
64501;DHT22;50874;24.150;-110.320;2023-03-16T07:06:18;20.50;99.90
64501;DHT22;50874;24.150;-110.320;2023-03-16T07:08:44;20.50;99.90
64501;DHT22;50874;24.150;-110.320;2023-03-16T07:11:11;20.50;99.90
64501;DHT22;50874;24.150;-110.320;2023-03-16T07:13:37;20.50;99.90
64501;DHT22;50874;24.150;-110.320;2023-03-16T07:16:04;20.50;99.90
64501;DHT22;50874;24.150;-110.320;2023-03-16T07:18:31;20.50;99.90
64501;DHT22;50874;24.150;-110.320;2023-03-16T07:20:57;20.50;99.90
64501;DHT22;50874;24.150;-110.320;2023-03-16T07:23:24;20.50;99.90
64501;DHT22;50874;24.150;-110.320;2023-03-16T07:25:51;20.40;99.90
64501;DHT22;50874;24.150;-110.320;2023-03-16T07:28:18;20.40;99.90
64501;DHT22;50874;24.150;-110.320;2023-03-16T07:30:45;20.40;99.90
64501;DHT22;50874;24.150;-110.320;2023-03-16T07:33:12;20.40;99.90
64501;DHT22;50874;24.150;-110.320;2023-03-16T07:35:40;20.30;99.90
64501;DHT22;50874;24.150;-110.320;2023-03-16T07:38:06;20.30;99.90
64501;DHT22;50874;24.150;-110.320;2023-03-16T07:40:35;20.30;99.90
64501;DHT22;50874;24.150;-110.320;2023-03-16T07:43:01;20.30;99.90
64501;DHT22;50874;24.150;-110.320;2023-03-16T07:45:29;20.20;99.90
64501;DHT22;50874;24.150;-110.320;2023-03-16T07:47:56;20.20;99.90
64501;DHT22;50874;24.150;-110.320;2023-03-16T07:50:23;20.20;99.90
64501;DHT22;50874;24.150;-110.320;2023-03-16T07:52:49;20.20;99.90
64501;DHT22;50874;24.150;-110.320;2023-03-16T07:55:16;20.20;99.90
64501;DHT22;50874;24.150;-110.320;2023-03-16T07:57:42;20.20;99.90
64501;DHT22;50874;24.150;-110.320;2023-03-16T08:00:13;20.20;99.90
64501;DHT22;50874;24.150;-110.320;2023-03-16T08:02:40;20.20;99.90
64501;DHT22;50874;24.150;-110.320;2023-03-16T08:05:07;20.20;99.90
64501;DHT22;50874;24.150;-110.320;2023-03-16T08:07:37;20.20;99.90
64501;DHT22;50874;24.150;-110.320;2023-03-16T08:10:04;20.20;99.90
64501;DHT22;50874;24.150;-110.320;2023-03-16T08:12:31;20.30;99.90
64501;DHT22;50874;24.150;-110.320;2023-03-16T08:14:58;20.30;99.90
64501;DHT22;50874;24.150;-110.320;2023-03-16T08:17:25;20.20;99.90
64501;DHT22;50874;24.150;-110.320;2023-03-16T08:19:51;20.30;99.90
64501;DHT22;50874;24.150;-110.320;2023-03-16T08:22:18;20.20;99.90
64501;DHT22;50874;24.150;-110.320;2023-03-16T08:24:45;20.30;99.90
64501;DHT22;50874;24.150;-110.320;2023-03-16T08:27:12;20.30;99.90
64501;DHT22;50874;24.150;-110.320;2023-03-16T08:29:40;20.30;99.90
64501;DHT22;50874;24.150;-110.320;2023-03-16T08:32:07;20.30;99.90
64501;DHT22;50874;24.150;-110.320;2023-03-16T08:34:33;20.30;99.90
64501;DHT22;50874;24.150;-110.320;2023-03-16T08:37:01;20.30;99.90
64501;DHT22;50874;24.150;-110.320;2023-03-16T08:39:27;20.20;99.90
64501;DHT22;50874;24.150;-110.320;2023-03-16T08:41:54;20.20;99.90
64501;DHT22;50874;24.150;-110.320;2023-03-16T08:44:21;20.10;99.90
64501;DHT22;50874;24.150;-110.320;2023-03-16T08:46:49;20.00;99.90
64501;DHT22;50874;24.150;-110.320;2023-03-16T08:49:16;19.90;99.90
64501;DHT22;50874;24.150;-110.320;2023-03-16T08:51:45;19.80;99.90
64501;DHT22;50874;24.150;-110.320;2023-03-16T08:54:12;19.70;99.90
64501;DHT22;50874;24.150;-110.320;2023-03-16T08:56:38;19.70;99.90
64501;DHT22;50874;24.150;-110.320;2023-03-16T08:59:05;19.60;99.90
64501;DHT22;50874;24.150;-110.320;2023-03-16T09:01:31;19.60;99.90
64501;DHT22;50874;24.150;-110.320;2023-03-16T09:03:58;19.50;99.90
64501;DHT22;50874;24.150;-110.320;2023-03-16T09:06:26;19.50;99.90
64501;DHT22;50874;24.150;-110.320;2023-03-16T09:08:52;19.40;99.90
64501;DHT22;50874;24.150;-110.320;2023-03-16T09:11:21;19.30;99.90
64501;DHT22;50874;24.150;-110.320;2023-03-16T09:13:48;19.30;99.90
64501;DHT22;50874;24.150;-110.320;2023-03-16T09:16:15;19.30;99.90
64501;DHT22;50874;24.150;-110.320;2023-03-16T09:18:42;19.20;99.90
64501;DHT22;50874;24.150;-110.320;2023-03-16T09:21:10;19.30;99.90
64501;DHT22;50874;24.150;-110.320;2023-03-16T09:23:39;19.20;99.90
64501;DHT22;50874;24.150;-110.320;2023-03-16T09:26:07;19.20;99.90
64501;DHT22;50874;24.150;-110.320;2023-03-16T09:28:35;19.20;99.90
64501;DHT22;50874;24.150;-110.320;2023-03-16T09:31:04;19.10;99.90
64501;DHT22;50874;24.150;-110.320;2023-03-16T09:33:31;19.00;99.90
64501;DHT22;50874;24.150;-110.320;2023-03-16T09:36:00;19.00;99.90
64501;DHT22;50874;24.150;-110.320;2023-03-16T09:38:27;19.00;99.90
64501;DHT22;50874;24.150;-110.320;2023-03-16T09:46:39;18.90;99.90
64501;DHT22;50874;24.150;-110.320;2023-03-16T09:49:10;18.90;99.90
64501;DHT22;50874;24.150;-110.320;2023-03-16T09:54:47;18.90;99.90
64501;DHT22;50874;24.150;-110.320;2023-03-16T09:57:24;18.80;99.90
64501;DHT22;50874;24.150;-110.320;2023-03-16T09:59:54;18.90;99.90
64501;DHT22;50874;24.150;-110.320;2023-03-16T10:05:12;18.80;99.90
64501;DHT22;50874;24.150;-110.320;2023-03-16T10:18:47;18.60;99.90
64501;DHT22;50874;24.150;-110.320;2023-03-16T10:21:16;18.60;99.90
64501;DHT22;50874;24.150;-110.320;2023-03-16T10:23:45;18.60;99.90
64501;DHT22;50874;24.150;-110.320;2023-03-16T10:26:22;18.50;99.90
64501;DHT22;50874;24.150;-110.320;2023-03-16T10:28:51;18.40;99.90
64501;DHT22;50874;24.150;-110.320;2023-03-16T10:31:21;18.40;99.90
64501;DHT22;50874;24.150;-110.320;2023-03-16T10:33:52;18.40;99.90
64501;DHT22;50874;24.150;-110.320;2023-03-16T10:36:34;18.30;99.90
64501;DHT22;50874;24.150;-110.320;2023-03-16T10:39:05;18.30;99.90
64501;DHT22;50874;24.150;-110.320;2023-03-16T10:41:35;18.30;99.90
64501;DHT22;50874;24.150;-110.320;2023-03-16T10:44:09;18.30;99.90
64501;DHT22;50874;24.150;-110.320;2023-03-16T10:46:48;18.20;99.90
64501;DHT22;50874;24.150;-110.320;2023-03-16T10:49:34;18.00;99.90
64501;DHT22;50874;24.150;-110.320;2023-03-16T10:52:50;18.00;99.90
64501;DHT22;50874;24.150;-110.320;2023-03-16T10:54:56;18.00;99.90
64501;DHT22;50874;24.150;-110.320;2023-03-16T10:57:32;18.00;99.90
64501;DHT22;50874;24.150;-110.320;2023-03-16T11:00:13;17.90;99.90
64501;DHT22;50874;24.150;-110.320;2023-03-16T11:02:51;17.90;99.90
64501;DHT22;50874;24.150;-110.320;2023-03-16T11:05:30;17.90;99.90
64501;DHT22;50874;24.150;-110.320;2023-03-16T11:08:19;18.00;99.90
64501;DHT22;50874;24.150;-110.320;2023-03-16T11:10:54;18.00;99.90
64501;DHT22;50874;24.150;-110.320;2023-03-16T11:13:34;18.00;99.90
64501;DHT22;50874;24.150;-110.320;2023-03-16T11:18:45;18.00;99.90
64501;DHT22;50874;24.150;-110.320;2023-03-16T11:21:38;18.10;99.90
64501;DHT22;50874;24.150;-110.320;2023-03-16T11:24:16;18.10;99.90
64501;DHT22;50874;24.150;-110.320;2023-03-16T11:26:50;18.10;99.90
64501;DHT22;50874;24.150;-110.320;2023-03-16T11:29:26;18.10;99.90
64501;DHT22;50874;24.150;-110.320;2023-03-16T11:32:09;18.10;99.90
64501;DHT22;50874;24.150;-110.320;2023-03-16T11:34:38;18.10;99.90
64501;DHT22;50874;24.150;-110.320;2023-03-16T11:37:18;18.10;99.90
64501;DHT22;50874;24.150;-110.320;2023-03-16T11:42:53;18.10;99.90
64501;DHT22;50874;24.150;-110.320;2023-03-16T11:45:40;18.10;99.90
64501;DHT22;50874;24.150;-110.320;2023-03-16T11:57:13;18.10;99.90
64501;DHT22;50874;24.150;-110.320;2023-03-16T12:11:11;17.70;99.90
64501;DHT22;50874;24.150;-110.320;2023-03-16T12:16:20;17.50;99.90
64501;DHT22;50874;24.150;-110.320;2023-03-16T12:18:55;17.40;99.90
64501;DHT22;50874;24.150;-110.320;2023-03-16T12:21:39;17.30;99.90
64501;DHT22;50874;24.150;-110.320;2023-03-16T12:24:17;17.20;99.90
64501;DHT22;50874;24.150;-110.320;2023-03-16T12:26:45;17.20;99.90
64501;DHT22;50874;24.150;-110.320;2023-03-16T12:37:31;17.00;99.90
64501;DHT22;50874;24.150;-110.320;2023-03-16T12:40:08;17.00;99.90
64501;DHT22;50874;24.150;-110.320;2023-03-16T12:42:43;17.00;99.90
64501;DHT22;50874;24.150;-110.320;2023-03-16T12:50:34;17.30;99.90
64501;DHT22;50874;24.150;-110.320;2023-03-16T12:53:41;17.40;99.90
64501;DHT22;50874;24.150;-110.320;2023-03-16T12:56:14;17.40;99.90
64501;DHT22;50874;24.150;-110.320;2023-03-16T12:58:47;17.40;99.90
64501;DHT22;50874;24.150;-110.320;2023-03-16T13:01:16;17.40;99.90
64501;DHT22;50874;24.150;-110.320;2023-03-16T13:03:46;17.40;99.90
64501;DHT22;50874;24.150;-110.320;2023-03-16T13:06:21;17.30;99.90
64501;DHT22;50874;24.150;-110.320;2023-03-16T13:08:56;17.30;99.90
64501;DHT22;50874;24.150;-110.320;2023-03-16T13:11:25;17.20;99.90
64501;DHT22;50874;24.150;-110.320;2023-03-16T13:16:32;17.10;99.90
64501;DHT22;50874;24.150;-110.320;2023-03-16T13:19:16;17.10;99.90
64501;DHT22;50874;24.150;-110.320;2023-03-16T13:21:58;17.00;99.90
64501;DHT22;50874;24.150;-110.320;2023-03-16T13:24:27;17.00;99.90
64501;DHT22;50874;24.150;-110.320;2023-03-16T13:27:03;17.00;99.00
64501;DHT22;50874;24.150;-110.320;2023-03-16T13:29:32;17.00;98.90
64501;DHT22;50874;24.150;-110.320;2023-03-16T13:32:05;17.00;98.50
64501;DHT22;50874;24.150;-110.320;2023-03-16T13:34:36;17.00;98.30
64501;DHT22;50874;24.150;-110.320;2023-03-16T13:37:12;17.00;97.70
64501;DHT22;50874;24.150;-110.320;2023-03-16T13:39:39;17.00;97.90
64501;DHT22;50874;24.150;-110.320;2023-03-16T13:42:18;17.00;97.10
64501;DHT22;50874;24.150;-110.320;2023-03-16T13:44:45;17.00;97.10
64501;DHT22;50874;24.150;-110.320;2023-03-16T13:47:16;17.00;97.50
64501;DHT22;50874;24.150;-110.320;2023-03-16T13:49:59;17.10;97.00
64501;DHT22;50874;24.150;-110.320;2023-03-16T13:52:31;17.10;96.10
64501;DHT22;50874;24.150;-110.320;2023-03-16T13:55:01;17.20;96.20
64501;DHT22;50874;24.150;-110.320;2023-03-16T13:57:31;17.30;95.00
64501;DHT22;50874;24.150;-110.320;2023-03-16T14:00:16;17.50;93.20
64501;DHT22;50874;24.150;-110.320;2023-03-16T14:02:49;17.80;92.20
64501;DHT22;50874;24.150;-110.320;2023-03-16T14:05:23;18.00;91.40
64501;DHT22;50874;24.150;-110.320;2023-03-16T14:07:52;18.20;91.30
64501;DHT22;50874;24.150;-110.320;2023-03-16T14:10:20;18.30;90.00
64501;DHT22;50874;24.150;-110.320;2023-03-16T14:13:05;18.60;88.40
64501;DHT22;50874;24.150;-110.320;2023-03-16T14:15:32;18.90;87.50
64501;DHT22;50874;24.150;-110.320;2023-03-16T14:18:16;19.30;87.40
64501;DHT22;50874;24.150;-110.320;2023-03-16T14:20:55;20.00;85.10
64501;DHT22;50874;24.150;-110.320;2023-03-16T14:23:36;20.70;84.20
64501;DHT22;50874;24.150;-110.320;2023-03-16T14:26:15;21.40;81.30
64501;DHT22;50874;24.150;-110.320;2023-03-16T14:29:01;21.90;79.00
64501;DHT22;50874;24.150;-110.320;2023-03-16T14:31:33;22.50;76.40
64501;DHT22;50874;24.150;-110.320;2023-03-16T14:34:02;23.00;74.60
64501;DHT22;50874;24.150;-110.320;2023-03-16T14:36:37;23.50;73.40
64501;DHT22;50874;24.150;-110.320;2023-03-16T14:39:15;23.70;71.10
64501;DHT22;50874;24.150;-110.320;2023-03-16T14:41:48;24.10;70.70
64501;DHT22;50874;24.150;-110.320;2023-03-16T14:44:21;24.30;69.10
64501;DHT22;50874;24.150;-110.320;2023-03-16T14:46:49;24.50;67.80
64501;DHT22;50874;24.150;-110.320;2023-03-16T14:49:17;24.80;67.90
64501;DHT22;50874;24.150;-110.320;2023-03-16T14:51:47;25.20;67.00
64501;DHT22;50874;24.150;-110.320;2023-03-16T14:54:16;25.60;66.50
64501;DHT22;50874;24.150;-110.320;2023-03-16T15:00:14;26.70;63.90
64501;DHT22;50874;24.150;-110.320;2023-03-16T15:15:54;29.80;62.00
64501;DHT22;50874;24.150;-110.320;2023-03-16T15:18:20;30.20;62.30
64501;DHT22;50874;24.150;-110.320;2023-03-16T15:20:47;30.40;62.20
64501;DHT22;50874;24.150;-110.320;2023-03-16T15:23:16;30.70;61.60
64501;DHT22;50874;24.150;-110.320;2023-03-16T15:25:44;30.60;60.30
64501;DHT22;50874;24.150;-110.320;2023-03-16T15:28:17;30.70;59.40
64501;DHT22;50874;24.150;-110.320;2023-03-16T15:30:46;30.80;58.60
64501;DHT22;50874;24.150;-110.320;2023-03-16T15:33:13;31.10;58.50
64501;DHT22;50874;24.150;-110.320;2023-03-16T15:35:41;31.40;57.50
64501;DHT22;50874;24.150;-110.320;2023-03-16T15:38:14;31.50;57.00
64501;DHT22;50874;24.150;-110.320;2023-03-16T15:40:41;31.70;56.20
64501;DHT22;50874;24.150;-110.320;2023-03-16T15:43:47;31.80;55.30
64501;DHT22;50874;24.150;-110.320;2023-03-16T15:46:13;32.10;54.70
64501;DHT22;50874;24.150;-110.320;2023-03-16T15:48:40;32.60;53.90
64501;DHT22;50874;24.150;-110.320;2023-03-16T15:51:27;33.10;53.20
64501;DHT22;50874;24.150;-110.320;2023-03-16T15:56:49;33.90;52.00
64501;DHT22;50874;24.150;-110.320;2023-03-16T15:59:16;34.00;51.60
64501;DHT22;50874;24.150;-110.320;2023-03-16T16:01:45;34.30;51.00
64501;DHT22;50874;24.150;-110.320;2023-03-16T16:04:34;34.40;51.30
64501;DHT22;50874;24.150;-110.320;2023-03-16T16:12:12;35.30;51.00
64501;DHT22;50874;24.150;-110.320;2023-03-16T16:18:01;35.00;50.60
64501;DHT22;50874;24.150;-110.320;2023-03-16T16:20:34;34.70;50.50
64501;DHT22;50874;24.150;-110.320;2023-03-16T16:23:04;34.90;50.60
64501;DHT22;50874;24.150;-110.320;2023-03-16T16:25:37;34.90;50.60
64501;DHT22;50874;24.150;-110.320;2023-03-16T16:28:25;35.20;50.70
64501;DHT22;50874;24.150;-110.320;2023-03-16T16:30:53;34.60;50.40
64501;DHT22;50874;24.150;-110.320;2023-03-16T16:33:33;34.90;50.40
64501;DHT22;50874;24.150;-110.320;2023-03-16T16:36:03;35.00;50.70
64501;DHT22;50874;24.150;-110.320;2023-03-16T16:38:40;34.90;50.10
64501;DHT22;50874;24.150;-110.320;2023-03-16T16:46:51;35.10;50.10
64501;DHT22;50874;24.150;-110.320;2023-03-16T16:51:50;35.70;49.80
64501;DHT22;50874;24.150;-110.320;2023-03-16T16:57:23;35.90;49.30
64501;DHT22;50874;24.150;-110.320;2023-03-16T17:00:00;36.50;49.40
64501;DHT22;50874;24.150;-110.320;2023-03-16T17:02:30;36.80;48.80
64501;DHT22;50874;24.150;-110.320;2023-03-16T17:04:57;37.20;48.20
64501;DHT22;50874;24.150;-110.320;2023-03-16T17:07:38;37.30;47.70